Time;durP1;ratioP1;P1;durP2;ratioP2;P2;SDS_P1;SDS_P2;PMS_P1;PMS_P2;Temp;Humidity;BMP_temperature;BMP_pressure;BME280_temperature;BME280_humidity;BME280_pressure;Samples;Min_cycle;Max_cycle;Signal;HPM_P1;HPM_P2
2023/09/28 00:00:35;;;;;;;1.08;0.70;;;17.00;1.00;;;;;;5136896;27;20422;-50
2023/09/28 00:02:49;;;;;;;1.10;0.80;;;17.10;1.00;;;;;;5136986;27;20767;-47
2023/09/28 00:05:19;;;;;;;1.30;0.80;;;17.00;1.00;;;;;;5137199;27;20414;-49
2023/09/28 00:07:47;;;;;;;0.90;0.70;;;17.10;1.00;;;;;;5136843;27;20457;-49
2023/09/28 00:10:15;;;;;;;1.00;0.70;;;17.10;99.90;;;;;;5136899;27;20744;-52
2023/09/28 00:12:43;;;;;;;1.10;0.80;;;17.10;99.90;;;;;;5135511;27;20829;-53
2023/09/28 00:15:11;;;;;;;1.40;0.80;;;17.10;99.90;;;;;;5136134;27;20524;-48
2023/09/28 00:17:39;;;;;;;1.50;0.80;;;17.10;99.90;;;;;;5136558;27;20430;-51
2023/09/28 00:20:09;;;;;;;1.20;0.80;;;17.10;10.00;;;;;;5136599;27;20411;-51
2023/09/28 00:22:37;;;;;;;1.10;0.80;;;17.10;1.00;;;;;;5136924;27;20493;-50
2023/09/28 00:25:09;;;;;;;1.00;0.70;;;17.10;1.00;;;;;;5136397;27;20718;-51
2023/09/28 00:27:37;;;;;;;1.07;0.70;;;17.10;1.00;;;;;;5136771;27;20426;-52
2023/09/28 00:30:06;;;;;;;1.10;0.70;;;17.10;1.00;;;;;;5135891;27;20486;-51
2023/09/28 00:32:35;;;;;;;1.30;0.80;;;17.20;1.00;;;;;;5136889;27;20478;-52
2023/09/28 00:35:01;;;;;;;1.10;0.80;;;17.20;1.00;;;;;;5135209;27;20433;-51
2023/09/28 00:37:28;;;;;;;1.90;0.80;;;17.10;1.00;;;;;;5136350;27;20422;-52
2023/09/28 00:39:55;;;;;;;1.10;0.80;;;17.00;1.00;;;;;;5136654;27;20466;-53
2023/09/28 00:42:23;;;;;;;1.00;0.70;;;17.00;99.90;;;;;;5136348;27;20419;-52
2023/09/28 00:44:49;;;;;;;1.30;0.70;;;17.00;99.90;;;;;;5136284;27;20851;-54
2023/09/28 00:47:18;;;;;;;1.20;0.80;;;16.90;1.00;;;;;;5136391;27;20818;-54
2023/09/28 00:49:46;;;;;;;1.20;0.70;;;17.00;1.00;;;;;;5136090;27;20413;-53
2023/09/28 00:52:16;;;;;;;1.30;0.80;;;17.00;1.00;;;;;;5136600;27;20722;-53
2023/09/28 00:54:44;;;;;;;1.10;0.70;;;17.00;1.00;;;;;;5135859;27;20859;-50
2023/09/28 00:57:11;;;;;;;2.40;0.80;;;17.00;1.00;;;;;;5136390;27;20418;-51
2023/09/28 00:59:37;;;;;;;1.90;0.70;;;17.00;1.00;;;;;;5135821;27;20426;-54
2023/09/28 01:02:04;;;;;;;1.40;0.80;;;17.00;99.90;;;;;;5135902;27;20434;-54
2023/09/28 01:04:31;;;;;;;1.30;0.80;;;16.90;1.00;;;;;;5136508;27;20469;-53
2023/09/28 01:06:59;;;;;;;1.35;0.90;;;16.80;1.00;;;;;;5136266;27;20418;-54
2023/09/28 01:09:26;;;;;;;1.50;0.80;;;16.90;99.90;;;;;;5135528;27;20421;-50
2023/09/28 01:11:53;;;;;;;1.20;0.70;;;16.90;1.00;;;;;;5135676;28;20428;-54
2023/09/28 01:14:21;;;;;;;1.02;0.70;;;16.90;38.70;;;;;;5135219;28;20432;-54
2023/09/28 01:16:48;;;;;;;1.30;0.63;;;16.80;94.50;;;;;;5135377;28;20427;-49
2023/09/28 01:19:15;;;;;;;1.27;0.80;;;16.90;99.90;;;;;;5135811;28;20884;-48
2023/09/28 01:21:43;;;;;;;1.90;0.80;;;16.80;99.90;;;;;;5135735;28;20889;-50
2023/09/28 01:24:11;;;;;;;1.10;0.80;;;16.80;99.90;;;;;;5135953;28;20418;-53
2023/09/28 01:26:38;;;;;;;1.35;0.70;;;16.70;99.90;;;;;;5135934;28;20436;-47
2023/09/28 01:29:05;;;;;;;1.45;0.70;;;16.60;99.90;;;;;;5135906;28;20513;-53
2023/09/28 01:31:32;;;;;;;1.30;0.70;;;16.60;1.00;;;;;;5136135;27;20760;-53
2023/09/28 01:33:59;;;;;;;1.58;0.70;;;16.60;1.00;;;;;;5140526;27;20461;-53
2023/09/28 01:36:26;;;;;;;1.00;0.70;;;16.60;1.00;;;;;;5140310;27;20533;-50
2023/09/28 01:38:58;;;;;;;1.20;0.75;;;16.80;1.00;;;;;;5127613;27;20833;-53
2023/09/28 01:41:26;;;;;;;1.30;0.70;;;16.80;1.00;;;;;;5136825;27;20467;-52
2023/09/28 01:43:53;;;;;;;1.20;0.80;;;16.90;1.00;;;;;;5140465;27;20414;-53
2023/09/28 01:46:19;;;;;;;1.60;0.77;;;17.00;1.00;;;;;;5140182;27;20554;-55
2023/09/28 01:48:46;;;;;;;1.20;0.80;;;16.90;1.00;;;;;;5140331;27;20442;-52
2023/09/28 01:51:13;;;;;;;1.20;0.70;;;16.90;1.00;;;;;;5139187;27;20521;-49
2023/09/28 01:53:40;;;;;;;1.20;0.80;;;16.80;1.00;;;;;;5129915;27;20749;-50
2023/09/28 01:56:06;;;;;;;1.40;0.77;;;16.80;1.00;;;;;;5115360;28;20800;-54
2023/09/28 01:58:35;;;;;;;1.30;0.80;;;16.80;1.00;;;;;;5139420;27;20426;-48
2023/09/28 02:01:01;;;;;;;1.90;0.80;;;16.80;1.00;;;;;;5139581;27;20836;-54
2023/09/28 02:03:29;;;;;;;1.50;0.80;;;16.80;1.00;;;;;;5122247;27;20422;-52
2023/09/28 02:05:56;;;;;;;1.10;0.70;;;16.80;1.00;;;;;;5138792;27;20878;-46
2023/09/28 02:08:23;;;;;;;1.27;0.80;;;16.80;5.40;;;;;;5139208;27;20437;-49
2023/09/28 02:10:49;;;;;;;1.20;0.80;;;16.80;1.00;;;;;;5138791;27;20418;-48
2023/09/28 02:13:16;;;;;;;1.30;0.90;;;16.80;1.00;;;;;;5138273;27;20425;-48
2023/09/28 02:15:44;;;;;;;2.10;1.00;;;16.70;1.00;;;;;;5138287;27;20439;-51
2023/09/28 02:18:11;;;;;;;1.10;0.80;;;16.60;19.70;;;;;;5137480;27;20418;-51
2023/09/28 02:20:37;;;;;;;1.70;0.80;;;16.60;99.90;;;;;;5139139;27;20521;-52
2023/09/28 02:23:09;;;;;;;1.45;0.80;;;16.60;99.90;;;;;;5139405;27;20444;-52
2023/09/28 02:25:35;;;;;;;1.48;0.80;;;16.60;99.90;;;;;;5138695;27;20411;-52
2023/09/28 02:28:02;;;;;;;1.55;0.77;;;16.60;99.90;;;;;;5139274;27;20419;-48
2023/09/28 02:30:28;;;;;;;1.92;0.80;;;16.50;99.90;;;;;;5139484;27;20469;-52
2023/09/28 02:32:57;;;;;;;1.10;0.73;;;16.50;99.90;;;;;;5138770;27;20435;-53
2023/09/28 02:35:23;;;;;;;1.20;1.00;;;16.50;99.90;;;;;;5138897;27;20479;-52
2023/09/28 02:37:52;;;;;;;1.10;0.80;;;16.50;99.90;;;;;;5139231;27;20414;-53
2023/09/28 02:40:19;;;;;;;2.20;0.70;;;16.60;99.90;;;;;;5138690;27;20527;-53
2023/09/28 02:42:48;;;;;;;1.23;0.80;;;16.60;99.90;;;;;;5138577;27;20706;-52
2023/09/28 02:45:14;;;;;;;1.15;0.73;;;16.60;99.90;;;;;;5137865;27;20419;-50
2023/09/28 02:47:43;;;;;;;1.83;0.70;;;16.60;99.90;;;;;;5139210;27;20737;-49
2023/09/28 02:50:11;;;;;;;1.50;0.80;;;16.60;51.20;;;;;;5138753;27;20407;-55
2023/09/28 02:52:40;;;;;;;1.30;0.80;;;16.60;99.90;;;;;;5138298;27;20419;-49
2023/09/28 02:55:08;;;;;;;1.80;0.82;;;16.60;99.90;;;;;;5138121;27;20887;-54
2023/09/28 02:57:35;;;;;;;1.10;0.80;;;16.60;1.00;;;;;;5138450;27;20418;-51
2023/09/28 03:00:12;;;;;;;1.13;0.80;;;16.60;99.90;;;;;;5138667;27;20432;-51
2023/09/28 03:02:38;;;;;;;1.15;0.80;;;16.60;99.90;;;;;;5129854;27;20422;-53
2023/09/28 03:05:08;;;;;;;1.15;0.70;;;16.70;99.90;;;;;;5113432;28;20414;-52
2023/09/28 03:07:39;;;;;;;1.00;0.80;;;16.80;99.90;;;;;;5138271;27;20436;-50
2023/09/28 03:10:10;;;;;;;1.23;0.80;;;16.70;99.90;;;;;;5138420;27;20726;-51
2023/09/28 03:12:36;;;;;;;2.00;0.80;;;16.80;29.20;;;;;;5138285;27;20426;-52
2023/09/28 03:15:10;;;;;;;1.43;0.77;;;16.70;99.90;;;;;;5138139;27;20423;-49
2023/09/28 03:17:37;;;;;;;1.40;0.88;;;16.60;99.90;;;;;;5138271;27;20426;-49
2023/09/28 03:20:09;;;;;;;1.58;0.90;;;16.60;99.90;;;;;;5138434;27;20414;-52
2023/09/28 03:22:37;;;;;;;1.42;0.80;;;16.50;99.90;;;;;;5138149;27;20433;-50
2023/09/28 03:25:06;;;;;;;1.42;0.70;;;16.50;99.90;;;;;;5137687;27;20495;-50
2023/09/28 03:27:32;;;;;;;1.25;0.80;;;16.50;99.90;;;;;;5137921;27;20758;-52
2023/09/28 03:30:00;;;;;;;1.50;0.90;;;16.50;1.00;;;;;;5138097;27;20455;-52
2023/09/28 03:32:26;;;;;;;1.15;0.80;;;16.50;99.90;;;;;;5138125;27;20407;-51
2023/09/28 03:34:53;;;;;;;1.10;0.80;;;16.50;1.00;;;;;;5137906;27;20495;-52
2023/09/28 03:37:20;;;;;;;1.10;0.70;;;16.40;99.90;;;;;;5138160;27;20672;-52
2023/09/28 03:39:50;;;;;;;1.30;0.80;;;16.50;1.00;;;;;;5137784;27;20796;-52
2023/09/28 03:42:17;;;;;;;1.50;0.80;;;16.50;1.00;;;;;;5137347;27;20422;-48
2023/09/28 03:44:44;;;;;;;1.00;0.70;;;16.50;99.90;;;;;;5137007;27;20415;-52
2023/09/28 03:47:11;;;;;;;1.87;0.90;;;16.50;1.00;;;;;;5137329;27;20418;-53
2023/09/28 03:49:38;;;;;;;1.30;0.80;;;16.50;99.90;;;;;;5137078;27;20498;-52
2023/09/28 03:52:05;;;;;;;1.70;0.80;;;16.50;1.00;;;;;;5137340;27;20509;-51
2023/09/28 03:54:33;;;;;;;1.70;0.80;;;16.50;1.00;;;;;;5136471;27;20533;-51
2023/09/28 03:57:01;;;;;;;1.30;0.80;;;16.50;1.00;;;;;;5137396;27;20516;-52
2023/09/28 03:59:28;;;;;;;1.10;0.70;;;16.50;1.00;;;;;;5137043;27;21138;-51
2023/09/28 04:01:55;;;;;;;1.95;0.80;;;16.50;1.00;;;;;;5137463;27;20497;-54
2023/09/28 04:04:23;;;;;;;1.80;0.80;;;16.50;1.00;;;;;;5135440;27;20429;-52
2023/09/28 04:06:50;;;;;;;1.42;0.80;;;16.50;1.00;;;;;;5137177;27;20518;-51
2023/09/28 04:09:17;;;;;;;1.40;0.90;;;16.40;1.00;;;;;;5136996;27;20715;-52
2023/09/28 04:11:44;;;;;;;1.38;0.90;;;16.40;99.90;;;;;;5136159;27;20479;-53
2023/09/28 04:14:13;;;;;;;1.10;0.80;;;16.30;99.90;;;;;;5135038;27;20414;-53
2023/09/28 04:16:40;;;;;;;1.50;0.90;;;16.30;99.90;;;;;;5133728;27;20430;-51
2023/09/28 04:19:07;;;;;;;1.10;0.80;;;16.40;99.90;;;;;;5134301;27;20426;-52
2023/09/28 04:21:35;;;;;;;1.30;0.90;;;16.40;79.70;;;;;;5133541;27;20537;-51
2023/09/28 04:24:02;;;;;;;1.60;1.10;;;16.40;99.90;;;;;;5117897;27;20461;-52
2023/09/28 04:26:29;;;;;;;1.50;0.90;;;16.40;99.90;;;;;;5112274;28;20416;-49
2023/09/28 04:28:56;;;;;;;1.30;0.90;;;16.40;99.90;;;;;;5113502;28;20439;-50
2023/09/28 04:31:25;;;;;;;1.13;0.70;;;16.40;99.90;;;;;;5111277;28;20427;-50
2023/09/28 04:33:52;;;;;;;1.45;0.90;;;16.30;99.90;;;;;;5132214;27;20429;-50
2023/09/28 04:36:19;;;;;;;1.20;0.80;;;16.30;99.90;;;;;;5131771;27;20422;-52
2023/09/28 04:38:46;;;;;;;1.30;0.80;;;16.30;1.00;;;;;;5123483;27;20430;-51
2023/09/28 04:41:14;;;;;;;1.97;0.90;;;16.30;55.20;;;;;;5111729;28;20412;-51
2023/09/28 04:43:41;;;;;;;1.30;0.80;;;16.30;15.60;;;;;;5115627;28;20413;-50
2023/09/28 04:46:09;;;;;;;1.23;0.90;;;16.40;35.60;;;;;;5115154;28;20508;-52
2023/09/28 04:48:37;;;;;;;1.50;0.88;;;16.40;99.90;;;;;;5115657;28;20527;-52
2023/09/28 04:51:05;;;;;;;1.83;1.00;;;16.40;99.90;;;;;;5114778;28;20514;-54
2023/09/28 04:53:32;;;;;;;1.23;0.80;;;16.30;99.90;;;;;;5115300;28;20428;-52
2023/09/28 04:55:59;;;;;;;1.88;0.90;;;16.30;99.90;;;;;;5115166;28;20522;-51
2023/09/28 04:58:27;;;;;;;1.50;0.90;;;16.30;99.90;;;;;;5115226;28;20437;-50
2023/09/28 05:00:54;;;;;;;1.20;0.90;;;16.30;99.90;;;;;;5113136;28;20445;-50
2023/09/28 05:03:22;;;;;;;1.80;0.90;;;16.40;99.90;;;;;;5133133;27;20507;-53
2023/09/28 05:05:50;;;;;;;1.50;0.90;;;16.40;99.90;;;;;;5131480;27;20705;-51
2023/09/28 05:08:17;;;;;;;1.80;1.00;;;16.40;1.00;;;;;;5132089;27;20413;-50
2023/09/28 05:10:45;;;;;;;1.40;0.90;;;16.40;99.90;;;;;;5134024;27;20823;-56
2023/09/28 05:13:14;;;;;;;1.37;0.90;;;16.40;99.90;;;;;;5132000;28;20489;-55
2023/09/28 05:15:41;;;;;;;1.97;0.90;;;16.30;99.90;;;;;;5133666;28;20521;-56
2023/09/28 05:18:08;;;;;;;1.20;0.80;;;16.40;99.90;;;;;;5133874;28;20796;-57
2023/09/28 05:20:36;;;;;;;1.73;0.90;;;16.40;99.90;;;;;;5134769;28;20419;-56
2023/09/28 05:23:05;;;;;;;2.27;1.00;;;16.50;99.90;;;;;;5133942;28;20414;-57
2023/09/28 05:25:33;;;;;;;2.10;0.80;;;16.50;99.90;;;;;;5133058;28;20465;-57
2023/09/28 05:28:01;;;;;;;1.63;0.80;;;16.50;45.70;;;;;;5131718;28;20788;-57
2023/09/28 05:30:28;;;;;;;1.70;0.90;;;16.50;99.90;;;;;;5133868;28;20517;-58
2023/09/28 05:32:55;;;;;;;3.47;1.00;;;16.50;99.90;;;;;;5134621;28;20422;-55
2023/09/28 05:35:24;;;;;;;1.30;0.90;;;16.40;99.90;;;;;;5133485;28;20426;-58
2023/09/28 05:37:51;;;;;;;1.40;0.90;;;16.40;99.90;;;;;;5133609;28;20414;-58
2023/09/28 05:40:21;;;;;;;1.23;0.80;;;16.40;99.90;;;;;;5130434;28;20418;-58
2023/09/28 05:42:47;;;;;;;1.40;0.90;;;16.40;1.00;;;;;;5129668;28;20521;-59
2023/09/28 05:45:14;;;;;;;3.70;0.90;;;16.40;1.00;;;;;;5131923;28;20705;-58
2023/09/28 05:47:41;;;;;;;1.20;0.90;;;16.40;1.00;;;;;;5131900;28;20513;-59
2023/09/28 05:50:09;;;;;;;2.00;0.88;;;16.40;1.00;;;;;;5133486;28;20725;-59
2023/09/28 05:52:36;;;;;;;1.20;0.90;;;16.50;1.00;;;;;;5133163;28;20704;-58
2023/09/28 05:55:04;;;;;;;1.30;1.00;;;16.50;1.00;;;;;;5133178;28;20430;-60
2023/09/28 05:57:32;;;;;;;1.30;0.90;;;16.60;1.00;;;;;;5134036;28;20501;-59
2023/09/28 06:00:00;;;;;;;1.80;0.90;;;16.70;1.00;;;;;;5133099;28;20465;-59
2023/09/28 06:02:27;;;;;;;1.67;1.00;;;16.80;1.00;;;;;;5132728;28;20409;-58
2023/09/28 06:04:54;;;;;;;2.10;0.90;;;16.90;1.00;;;;;;5131547;28;20772;-59
2023/09/28 06:07:23;;;;;;;2.00;1.00;;;17.00;1.00;;;;;;5130187;28;20418;-59
2023/09/28 06:09:52;;;;;;;1.20;0.80;;;17.00;1.00;;;;;;5132485;28;20521;-59
2023/09/28 06:12:19;;;;;;;2.23;1.00;;;17.10;1.00;;;;;;5126036;28;20442;-56
2023/09/28 06:14:48;;;;;;;2.50;1.00;;;17.10;1.00;;;;;;5130786;28;20830;-59
2023/09/28 06:17:17;;;;;;;2.10;1.00;;;17.10;99.90;;;;;;5122664;27;20432;-58
2023/09/28 06:19:44;;;;;;;1.60;1.00;;;17.10;1.00;;;;;;5125719;27;20424;-56
2023/09/28 06:22:11;;;;;;;1.42;1.00;;;17.00;1.00;;;;;;5130738;27;20457;-59
2023/09/28 06:24:39;;;;;;;2.10;1.10;;;17.10;1.00;;;;;;5130234;27;20446;-59
2023/09/28 06:27:06;;;;;;;1.30;0.90;;;17.20;1.00;;;;;;5123186;27;20538;-58
2023/09/28 06:29:33;;;;;;;1.90;1.05;;;17.30;1.00;;;;;;5112082;28;20423;-58
2023/09/28 06:32:03;;;;;;;1.85;1.17;;;17.30;1.00;;;;;;5110832;28;20722;-59
2023/09/28 06:34:30;;;;;;;2.53;0.90;;;17.30;1.00;;;;;;5112449;27;20438;-59
2023/09/28 06:36:57;;;;;;;2.40;0.90;;;17.30;99.90;;;;;;5128347;27;20690;-58
2023/09/28 06:39:24;;;;;;;1.90;0.82;;;17.30;1.00;;;;;;5126396;27;20452;-58
2023/09/28 06:41:52;;;;;;;1.85;0.90;;;17.30;99.90;;;;;;5117559;27;20540;-58
2023/09/28 06:44:19;;;;;;;1.00;0.70;;;17.40;99.90;;;;;;5112654;27;20420;-58
2023/09/28 06:46:46;;;;;;;1.48;0.80;;;17.40;7.50;;;;;;5133486;27;20425;-59
2023/09/28 06:49:15;;;;;;;1.63;0.80;;;17.50;25.80;;;;;;5131576;27;20809;-59
2023/09/28 06:51:42;;;;;;;2.90;0.90;;;17.50;1.00;;;;;;5122153;27;20819;-59
2023/09/28 06:54:09;;;;;;;1.60;0.80;;;17.60;1.00;;;;;;5114930;28;20518;-59
2023/09/28 06:56:37;;;;;;;1.48;0.80;;;17.60;99.90;;;;;;5125601;27;20515;-59
2023/09/28 06:59:04;;;;;;;2.00;0.80;;;17.70;99.90;;;;;;5134463;27;20821;-59
2023/09/28 07:01:33;;;;;;;2.30;0.80;;;17.70;99.90;;;;;;5127539;27;20522;-58
2023/09/28 07:04:00;;;;;;;1.40;0.80;;;17.70;99.90;;;;;;5145499;27;20431;-58
2023/09/28 07:06:29;;;;;;;1.10;0.70;;;17.70;99.90;;;;;;5133763;27;20433;-57
2023/09/28 07:08:57;;;;;;;2.30;0.90;;;17.70;99.90;;;;;;5134818;27;20533;-57
2023/09/28 07:11:26;;;;;;;2.00;0.90;;;17.80;99.90;;;;;;5113641;28;20486;-57
2023/09/28 07:13:54;;;;;;;1.70;0.80;;;17.90;99.90;;;;;;5126539;27;20417;-57
2023/09/28 07:16:22;;;;;;;2.88;0.80;;;18.00;99.90;;;;;;5117500;27;20438;-59
2023/09/28 07:18:49;;;;;;;2.10;0.80;;;18.20;1.00;;;;;;5135915;27;20917;-56
2023/09/28 07:21:16;;;;;;;1.20;0.80;;;18.30;1.00;;;;;;5135414;27;20423;-54
2023/09/28 07:23:46;;;;;;;1.05;0.80;;;18.40;1.00;;;;;;5132301;27;20869;-56
2023/09/28 07:26:16;;;;;;;1.40;0.90;;;18.50;1.00;;;;;;5120281;27;20420;-57
2023/09/28 07:28:44;;;;;;;1.52;0.82;;;18.50;1.00;;;;;;5111483;28;20490;-57
2023/09/28 07:31:12;;;;;;;1.35;0.85;;;18.60;1.00;;;;;;5113156;27;20523;-57
2023/09/28 07:33:40;;;;;;;1.23;0.90;;;18.60;1.00;;;;;;5123964;27;20430;-56
2023/09/28 07:36:07;;;;;;;1.70;0.80;;;18.50;1.00;;;;;;5133202;27;20916;-57
2023/09/28 07:38:35;;;;;;;1.40;0.90;;;18.50;1.00;;;;;;5126553;27;20432;-58
2023/09/28 07:41:03;;;;;;;1.30;0.80;;;18.60;1.00;;;;;;5111493;27;20497;-58
2023/09/28 07:43:31;;;;;;;1.90;0.90;;;18.60;1.00;;;;;;5118998;27;20436;-59
2023/09/28 07:45:58;;;;;;;1.10;0.80;;;18.70;1.00;;;;;;5116048;27;20523;-59
2023/09/28 07:48:25;;;;;;;1.50;0.90;;;18.70;1.00;;;;;;5113872;28;20424;-59
2023/09/28 07:50:53;;;;;;;1.60;0.90;;;18.80;1.00;;;;;;5115112;28;20428;-60
2023/09/28 07:53:20;;;;;;;1.50;0.80;;;18.90;1.00;;;;;;5114981;28;20467;-59
2023/09/28 07:55:48;;;;;;;1.13;0.82;;;19.00;99.90;;;;;;5113265;28;20705;-56
2023/09/28 07:58:16;;;;;;;1.20;1.00;;;19.10;99.90;;;;;;5116924;27;20426;-58
2023/09/28 08:00:44;;;;;;;1.77;0.90;;;19.20;99.90;;;;;;5118662;27;20945;-55
2023/09/28 08:03:11;;;;;;;1.20;0.80;;;19.20;99.90;;;;;;5121282;27;20956;-56
2023/09/28 08:05:38;;;;;;;2.15;0.75;;;19.30;99.90;;;;;;5131547;27;20803;-55
2023/09/28 08:08:06;;;;;;;1.50;1.00;;;19.40;99.90;;;;;;5153580;27;20515;-55
2023/09/28 08:10:33;;;;;;;2.22;0.80;;;19.50;99.90;;;;;;5145049;27;20411;-56
2023/09/28 08:13:01;;;;;;;1.70;0.80;;;19.70;20.40;;;;;;5129668;27;20427;-57
2023/09/28 08:15:30;;;;;;;2.40;1.00;;;19.80;1.00;;;;;;5129026;27;20433;-54
2023/09/28 08:17:57;;;;;;;2.70;1.00;;;19.80;1.00;;;;;;5154938;27;20451;-56
2023/09/28 08:20:26;;;;;;;2.00;1.10;;;19.70;1.00;;;;;;5142018;27;20415;-56
2023/09/28 08:22:53;;;;;;;1.60;1.20;;;19.70;36.70;;;;;;5129761;27;20447;-56
2023/09/28 08:25:20;;;;;;;1.65;1.00;;;19.60;69.00;;;;;;5131407;27;20426;-56
2023/09/28 08:27:48;;;;;;;2.95;1.15;;;19.60;55.50;;;;;;5134549;27;20471;-61
2023/09/28 08:30:15;;;;;;;3.47;1.88;;;19.60;51.50;;;;;;5132415;27;20465;-58
2023/09/28 08:32:44;;;;;;;1.50;1.02;;;19.50;44.80;;;;;;5128718;27;20422;-58
2023/09/28 08:35:12;;;;;;;2.92;1.00;;;19.50;93.90;;;;;;5133659;27;20837;-58
2023/09/28 08:37:39;;;;;;;2.70;1.10;;;19.40;99.90;;;;;;5122130;27;20425;-58
2023/09/28 08:40:08;;;;;;;1.55;1.00;;;19.40;99.90;;;;;;5112818;28;20423;-58
2023/09/28 08:42:38;;;;;;;2.28;1.00;;;19.40;99.90;;;;;;5118884;27;20423;-59
2023/09/28 08:45:08;;;;;;;2.80;1.13;;;19.50;99.90;;;;;;5119415;27;20430;-58
2023/09/28 08:47:45;;;;;;;2.30;1.00;;;19.50;99.90;;;;;;5133563;27;20509;-59
2023/09/28 08:50:21;;;;;;;3.20;1.10;;;19.70;99.90;;;;;;5131881;27;20448;-59
2023/09/28 08:52:50;;;;;;;4.93;1.40;;;19.70;99.90;;;;;;5133132;27;20729;-59
2023/09/28 08:55:17;;;;;;;2.22;1.08;;;19.80;99.90;;;;;;5134659;27;20829;-58
2023/09/28 08:57:45;;;;;;;1.63;1.00;;;19.90;42.10;;;;;;5132834;27;20533;-59
2023/09/28 09:00:14;;;;;;;3.40;1.30;;;20.10;1.00;;;;;;5131506;27;20752;-60
2023/09/28 09:02:44;;;;;;;2.10;1.10;;;20.10;1.00;;;;;;5114426;28;20915;-59
2023/09/28 09:05:13;;;;;;;2.90;0.90;;;20.20;1.00;;;;;;5127219;27;20422;-59
2023/09/28 09:07:42;;;;;;;1.80;0.90;;;20.30;1.00;;;;;;5131957;27;20410;-59
2023/09/28 09:10:13;;;;;;;1.60;1.00;;;20.40;1.00;;;;;;5130818;27;20525;-60
2023/09/28 09:12:41;;;;;;;2.60;0.90;;;20.50;1.00;;;;;;5118160;27;20900;-59
2023/09/28 09:15:09;;;;;;;1.70;1.00;;;20.60;1.00;;;;;;5123597;27;20819;-60
2023/09/28 09:17:37;;;;;;;1.70;0.90;;;20.60;1.00;;;;;;5111114;28;20708;-60
2023/09/28 09:20:08;;;;;;;1.65;1.00;;;20.70;1.00;;;;;;5118434;28;20422;-60
2023/09/28 09:22:36;;;;;;;1.98;0.90;;;20.80;1.00;;;;;;5129919;28;20446;-60
2023/09/28 09:25:06;;;;;;;1.80;1.00;;;20.90;1.00;;;;;;5121999;28;20482;-59
2023/09/28 09:27:34;;;;;;;1.48;1.00;;;21.10;1.00;;;;;;5116784;28;20460;-59
2023/09/28 09:30:08;;;;;;;1.98;0.90;;;21.20;1.00;;;;;;5122454;28;20533;-59
2023/09/28 09:32:37;;;;;;;1.50;0.80;;;21.40;1.00;;;;;;5131058;28;20422;-59
2023/09/28 09:35:06;;;;;;;1.75;0.90;;;21.50;99.90;;;;;;5130982;28;20837;-59
2023/09/28 09:37:33;;;;;;;1.38;0.70;;;21.60;99.90;;;;;;5131179;28;20471;-60
2023/09/28 09:40:12;;;;;;;0.90;0.60;;;21.70;99.90;;;;;;5114157;28;20540;-59
2023/09/28 09:42:41;;;;;;;1.90;0.80;;;21.80;99.90;;;;;;5122417;28;20426;-60
2023/09/28 09:45:11;;;;;;;3.45;0.70;;;21.90;99.90;;;;;;5118014;28;20438;-59
2023/09/28 09:47:44;;;;;;;1.08;0.70;;;22.10;99.90;;;;;;5110433;28;20639;-59
2023/09/28 09:50:13;;;;;;;1.83;0.80;;;22.40;99.90;;;;;;5112511;28;20664;-59
2023/09/28 09:52:41;;;;;;;2.73;0.80;;;22.70;99.90;;;;;;5131378;27;20479;-59
2023/09/28 09:55:10;;;;;;;1.20;0.70;;;23.00;93.60;;;;;;5135060;27;20518;-60
2023/09/28 09:57:39;;;;;;;1.40;0.70;;;23.20;38.60;;;;;;5131740;27;20721;-60
2023/09/28 10:00:09;;;;;;;2.40;0.80;;;23.40;4.10;;;;;;5123776;27;20466;-60
2023/09/28 10:02:40;;;;;;;1.90;0.80;;;23.60;1.00;;;;;;5131874;27;20701;-60
2023/09/28 10:05:09;;;;;;;1.40;0.80;;;23.70;1.00;;;;;;5131936;27;20446;-61
2023/09/28 10:07:40;;;;;;;1.80;0.90;;;23.90;1.00;;;;;;5121820;27;20426;-61
2023/09/28 10:10:08;;;;;;;2.23;0.80;;;24.00;1.00;;;;;;5112344;28;20665;-60
2023/09/28 10:12:37;;;;;;;1.30;0.80;;;24.20;1.00;;;;;;5112604;27;20532;-60
2023/09/28 10:15:06;;;;;;;1.42;1.00;;;24.40;1.00;;;;;;5113634;28;20519;-59
2023/09/28 10:17:34;;;;;;;1.60;0.80;;;24.60;1.00;;;;;;5111669;27;20796;-58
2023/09/28 10:20:02;;;;;;;1.20;0.88;;;24.80;1.00;;;;;;5112643;28;20586;-58
2023/09/28 10:22:30;;;;;;;1.85;0.90;;;24.90;1.00;;;;;;5112515;27;20468;-57
2023/09/28 10:24:57;;;;;;;2.80;0.90;;;25.10;1.00;;;;;;5113948;27;20434;-58
2023/09/28 10:27:25;;;;;;;1.60;0.80;;;25.00;1.00;;;;;;5113459;28;20451;-58
2023/09/28 10:30:18;;;;;;;1.35;0.77;;;25.00;1.00;;;;;;5113052;28;20446;-58
2023/09/28 10:32:45;;;;;;;2.70;0.80;;;25.10;1.00;;;;;;5113087;28;20949;-58
2023/09/28 10:35:24;;;;;;;1.13;0.75;;;25.30;1.00;;;;;;5116387;27;20474;-59
2023/09/28 10:38:16;;;;;;;1.30;0.70;;;25.30;1.00;;;;;;5116066;27;20875;-59
2023/09/28 10:40:44;;;;;;;1.33;0.90;;;25.40;1.00;;;;;;5113103;28;20833;-59
2023/09/28 10:43:13;;;;;;;1.30;0.80;;;25.50;1.00;;;;;;5114068;28;20416;-58
2023/09/28 10:45:42;;;;;;;1.40;0.80;;;25.70;1.00;;;;;;5112791;27;20463;-58
2023/09/28 10:48:10;;;;;;;1.10;0.70;;;25.90;1.00;;;;;;5114865;27;20421;-58
2023/09/28 10:50:40;;;;;;;2.30;0.70;;;25.90;1.00;;;;;;5115388;28;20452;-59
2023/09/28 10:53:07;;;;;;;1.50;0.70;;;26.00;1.00;;;;;;5114082;28;20866;-59
2023/09/28 10:55:35;;;;;;;1.40;1.10;;;26.10;1.00;;;;;;5114754;28;20473;-58
2023/09/28 10:58:07;;;;;;;1.00;0.80;;;26.30;1.00;;;;;;5116026;27;20435;-58
2023/09/28 11:00:34;;;;;;;2.00;0.70;;;26.30;1.00;;;;;;5122021;27;20809;-58
2023/09/28 11:03:04;;;;;;;1.10;0.80;;;26.40;1.00;;;;;;5128838;27;20422;-58
2023/09/28 11:05:32;;;;;;;1.40;0.80;;;26.40;1.00;;;;;;5133374;27;20929;-58
2023/09/28 11:08:03;;;;;;;1.30;0.80;;;26.50;1.00;;;;;;5131317;27;20438;-58
2023/09/28 11:10:31;;;;;;;0.80;0.60;;;26.30;1.00;;;;;;5134103;27;20829;-59
2023/09/28 11:12:58;;;;;;;2.00;0.70;;;26.30;1.00;;;;;;5115784;27;20461;-59
2023/09/28 11:15:29;;;;;;;1.00;0.70;;;26.40;1.00;;;;;;5114950;27;20522;-59
2023/09/28 11:17:57;;;;;;;1.43;0.70;;;26.30;1.00;;;;;;5124270;27;20437;-58
2023/09/28 11:20:26;;;;;;;1.40;0.70;;;26.40;1.00;;;;;;5135199;27;20406;-58
2023/09/28 11:22:57;;;;;;;1.75;1.40;;;26.50;1.00;;;;;;5112581;28;20765;-58
2023/09/28 11:25:26;;;;;;;1.52;0.70;;;26.60;1.00;;;;;;5113961;28;20920;-58
2023/09/28 11:27:54;;;;;;;1.80;0.80;;;26.50;1.00;;;;;;5114424;28;20481;-58
2023/09/28 11:30:21;;;;;;;1.00;0.70;;;26.30;1.00;;;;;;5111754;28;20460;-59
2023/09/28 11:32:51;;;;;;;1.77;0.80;;;26.40;1.00;;;;;;5112804;27;20712;-59
2023/09/28 11:35:25;;;;;;;1.10;0.70;;;26.70;1.00;;;;;;5113269;28;20500;-59
2023/09/28 11:37:53;;;;;;;1.00;0.73;;;26.80;1.00;;;;;;5128738;27;20462;-58
2023/09/28 11:40:22;;;;;;;1.70;0.70;;;26.70;1.00;;;;;;5132532;27;20505;-58
2023/09/28 11:42:50;;;;;;;1.60;0.70;;;26.80;1.00;;;;;;5132866;27;20894;-59
2023/09/28 11:45:18;;;;;;;2.00;0.70;;;26.80;1.00;;;;;;5133064;27;20422;-58
2023/09/28 11:47:49;;;;;;;1.35;0.60;;;26.80;1.00;;;;;;5120392;27;20428;-59
2023/09/28 11:50:19;;;;;;;1.05;0.70;;;26.80;1.00;;;;;;5126609;27;20685;-59
2023/09/28 11:52:48;;;;;;;1.30;0.80;;;26.80;1.00;;;;;;5132584;27;20490;-58
2023/09/28 11:55:16;;;;;;;1.83;0.80;;;26.70;1.00;;;;;;5133343;27;20418;-58
2023/09/28 11:57:44;;;;;;;1.40;0.70;;;26.80;1.00;;;;;;5121473;27;20855;-59
2023/09/28 12:00:18;;;;;;;1.10;0.70;;;26.60;1.00;;;;;;5112519;28;20426;-59
2023/09/28 12:02:46;;;;;;;0.95;0.70;;;26.60;1.00;;;;;;5121492;27;20520;-58
2023/09/28 12:05:14;;;;;;;2.60;0.70;;;26.80;1.00;;;;;;5132154;27;20517;-58
2023/09/28 12:07:42;;;;;;;1.60;0.70;;;26.90;1.00;;;;;;5134022;27;20757;-58
2023/09/28 12:10:12;;;;;;;1.02;0.60;;;27.00;1.00;;;;;;5132914;27;20426;-58
2023/09/28 12:12:40;;;;;;;1.10;0.60;;;27.00;1.00;;;;;;5134484;27;20503;-59
2023/09/28 12:15:10;;;;;;;1.30;0.60;;;27.00;1.00;;;;;;5127555;27;20439;-59
2023/09/28 12:17:39;;;;;;;1.00;0.70;;;27.00;1.00;;;;;;5112156;28;20485;-59
2023/09/28 12:20:09;;;;;;;0.90;0.60;;;27.00;1.00;;;;;;5125781;27;20431;-59
2023/09/28 12:22:36;;;;;;;1.60;0.70;;;26.80;1.00;;;;;;5111871;27;20466;-59
2023/09/28 12:25:05;;;;;;;3.78;0.88;;;26.80;1.00;;;;;;5111859;28;20481;-59
2023/09/28 12:27:34;;;;;;;0.90;0.50;;;26.80;1.00;;;;;;5113091;28;21009;-62
2023/09/28 12:30:02;;;;;;;0.80;0.60;;;26.80;1.00;;;;;;5112227;28;20496;-59
2023/09/28 12:32:30;;;;;;;1.40;0.50;;;27.00;1.00;;;;;;5110330;28;20424;-59
2023/09/28 12:34:57;;;;;;;1.20;0.55;;;27.10;1.00;;;;;;5112244;28;20511;-59
2023/09/28 12:37:25;;;;;;;1.40;0.60;;;27.00;1.00;;;;;;5128124;27;20493;-58
2023/09/28 12:39:54;;;;;;;1.10;0.70;;;27.00;1.00;;;;;;5129843;27;20430;-60
2023/09/28 12:42:23;;;;;;;1.90;0.60;;;26.90;1.00;;;;;;5131051;27;20513;-58
2023/09/28 12:44:52;;;;;;;1.00;0.60;;;26.90;1.00;;;;;;5112577;28;20476;-60
2023/09/28 12:47:20;;;;;;;0.98;0.52;;;27.10;1.00;;;;;;5124076;27;20930;-57
2023/09/28 12:49:48;;;;;;;0.88;0.60;;;27.20;1.00;;;;;;5129069;27;20485;-57
2023/09/28 12:52:16;;;;;;;1.30;0.70;;;27.10;1.00;;;;;;5111334;28;20877;-57
2023/09/28 12:54:45;;;;;;;1.50;0.70;;;27.10;1.00;;;;;;5112419;28;20428;-56
2023/09/28 12:57:12;;;;;;;1.30;0.60;;;27.10;1.00;;;;;;5123729;27;20813;-57